In Rescue
 
Open Full Screen Window  High Contrast Mode
Wind Gusting 00 knots
06
July 23, 2019 1:34 AM EDT
Weather Information
Wind Direction
  300 °
Wind Speed
  06 kt (7 mph)
Wind Gust
  00 kt (0 mph)
Altimeter
30.05 in
Visibility
10 SM
Temperature
15° C
59° F
Dewpoint
10° C
50° F
Humidity
72%
1hr Rain Fall
00.00 in.
24hr Rain Fall
00.00 in.
Sky Condition
Broken @ 12,000 ft
Broken @ 9,500 ft
Scattered @ 7,000 ft
VFR

METAR KSAW 230534Z AUTO 30006KT 10SM SCT070 BKN095 BKN120 15/10 A3005 RMK AO2 T01460100

FAA Disclaimer: The data displayed is for advisory purposes only and is not to be used for flight planning or operations.